EPWA/WAW METAR and TAF weather

Enter ICAO airport designator
Station Type Date Time Source
EPWA METAR 2020/09/19 02:00 UTC NOAA

EPWA 190200Z 19001KT 9999 MIFG NSC 05/05 Q1026 NOSIG


Station Type Date Time Source
EPWA Decoded METAR 2020/09/19 02:00 UTC NOAA

Warszawa-Okecie, Poland (EPWA) 52-10N 020-58E 107M
Sep 18, 2020 - 10:00 PM EDT / 2020.09.19 0200 UTC
Wind: from the S (190 degrees) at 1 MPH (1 KT):0
Visibility: greater than 7 mile(s):0
Weather: shallow fog
Temperature: 41 F (5 C)
Dew Point: 41 F (5 C)
Relative Humidity: 100%
Pressure (altimeter): 30.30 in. Hg (1026 hPa)
ob: EPWA 190200Z 19001KT 9999 MIFG NSC 05/05 Q1026 NOSIG
cycle: 2

Station Type Date Time Source
EPWA TAF 2020/09/18 21:35 UTC NOAA

TAF EPWA 182030Z 1821/1921 27005KT CAVOK PROB30 1901/1906 4000 BR

Example: see airport list